createdAt,value
2017-01-09T00:03:48.352Z,69.42
2017-01-09T00:08:48.707Z,69.1
2017-01-09T00:13:48.677Z,69.33
2017-01-09T00:18:48.251Z,69.01
2017-01-09T00:23:48.610Z,69.39
2017-01-09T00:28:48.574Z,69.39
2017-01-09T00:33:48.544Z,69.58
2017-01-09T00:38:48.119Z,69.39
2017-01-09T00:43:48.474Z,69.68
2017-01-09T00:48:48.439Z,69.77
2017-01-09T00:53:48.019Z,69.87
2017-01-09T00:58:48.380Z,70.06
2017-01-09T01:03:48.341Z,70.06
2017-01-09T01:08:48.303Z,70.15
2017-01-09T01:13:48.275Z,70.41
2017-01-09T01:18:48.237Z,70.31
2017-01-09T01:23:48.202Z,70.31
2017-01-09T01:28:48.169Z,70.21
2017-01-09T01:33:48.135Z,70.5
2017-01-09T01:38:48.095Z,70.41
2017-01-09T01:43:48.065Z,70.31
2017-01-09T01:48:47.640Z,70.12
2017-01-09T01:53:48.047Z,70.12
2017-01-09T01:58:47.960Z,70.5
2017-01-09T02:03:47.535Z,70.41
2017-01-09T02:08:47.888Z,70.7
2017-01-09T02:13:47.469Z,70.7
2017-01-09T02:18:47.434Z,70.41
2017-01-09T02:23:47.784Z,70.5
2017-01-09T02:28:47.750Z,70.6
2017-01-09T02:33:47.338Z,70.21
2017-01-09T02:38:47.684Z,70.31
2017-01-09T02:43:47.648Z,70.28
2017-01-09T02:48:47.224Z,70.37
2017-01-09T02:53:47.188Z,70.28
2017-01-09T02:58:47.151Z,70.66
2017-01-09T03:03:47.501Z,70.85
2017-01-09T03:08:47.464Z,70.66
2017-01-09T03:13:47.428Z,70.85
2017-01-09T03:18:47.395Z,70.66
2017-01-09T03:23:47.353Z,70.85
2017-01-09T03:28:47.318Z,70.76
2017-01-09T03:33:47.282Z,70.85
2017-01-09T03:38:47.243Z,71.04
2017-01-09T03:43:47.222Z,71.04
2017-01-09T03:48:47.171Z,71.33
2017-01-09T03:53:47.136Z,71.14
2017-01-09T03:58:47.096Z,71.14
2017-01-09T04:03:47.062Z,71.14
2017-01-09T04:08:47.022Z,71.04
2017-01-09T04:13:46.600Z,71.01
2017-01-09T04:18:46.948Z,71.01
2017-01-09T04:23:46.913Z,71.2
2017-01-09T04:28:46.875Z,71.11
2017-01-09T04:33:46.833Z,71.01
2017-01-09T04:38:46.805Z,71.01
2017-01-09T04:43:46.763Z,71.01
2017-01-09T04:48:46.335Z,70.91
2017-01-09T04:53:46.682Z,71.01
2017-01-09T04:58:46.646Z,71.01
2017-01-09T05:03:46.606Z,71.11
2017-01-09T05:08:46.568Z,70.81
2017-01-09T05:13:46.147Z,71.2
2017-01-09T05:18:46.496Z,71.2
2017-01-09T05:23:46.452Z,71.11
2017-01-09T05:28:46.414Z,71.2
2017-01-09T05:33:46.386Z,71.11
2017-01-09T05:38:46.343Z,71.2
2017-01-09T05:43:46.298Z,71.2
2017-01-09T05:48:46.257Z,71.2
2017-01-09T05:53:46.217Z,71.48
2017-01-09T05:58:46.180Z,71.48
2017-01-09T06:03:46.143Z,71.68
2017-01-09T06:08:46.107Z,71.39
2017-01-09T06:13:45.676Z,71.64
2017-01-09T06:18:46.023Z,71.36
2017-01-09T06:23:45.984Z,71.58
2017-01-09T06:28:45.944Z,71.45
2017-01-09T06:33:45.518Z,71.36
2017-01-09T06:38:45.862Z,70.97
2017-01-09T06:43:45.827Z,70.81
2017-01-09T06:48:45.788Z,69.99
2017-01-09T06:53:45.368Z,68.4
2017-01-09T06:58:45.336Z,67.32
2017-01-09T07:03:45.694Z,66.58
2017-01-09T07:08:45.280Z,65.84
2017-01-09T07:13:45.640Z,65.88
2017-01-09T07:18:45.622Z,64.85
2017-01-09T07:23:45.593Z,64.28
2017-01-09T07:28:45.575Z,64.76
2017-01-09T07:33:45.161Z,64.37
2017-01-09T07:38:45.532Z,64.56
2017-01-09T07:43:45.504Z,64.56
2017-01-09T07:48:45.488Z,64.76
2017-01-09T07:53:45.472Z,64.82
2017-01-09T07:58:45.446Z,65.23
2017-01-09T08:03:45.420Z,65.3
2017-01-09T08:08:45.399Z,65.3
2017-01-09T08:13:45.379Z,65.4
2017-01-09T08:18:45.353Z,65.2
2017-01-09T08:23:45.331Z,65.3
2017-01-09T08:28:45.309Z,65.4
2017-01-09T08:33:45.285Z,65.88
2017-01-09T08:38:45.266Z,65.78
2017-01-09T08:43:45.248Z,66.33
2017-01-09T08:48:45.221Z,65.84
2017-01-09T08:53:45.194Z,65.84
2017-01-09T08:58:45.170Z,66.23
2017-01-09T09:03:45.152Z,65.4
2017-01-09T09:08:45.126Z,65.78
2017-01-09T09:13:45.103Z,65.69
2017-01-09T09:18:45.082Z,65.69
2017-01-09T09:23:44.670Z,65.11
2017-01-09T09:28:44.652Z,65.14
2017-01-09T09:33:44.628Z,65.43
2017-01-09T09:38:44.992Z,65.05
2017-01-09T09:43:44.593Z,64.76
2017-01-09T09:48:44.953Z,64.76
2017-01-09T09:53:44.932Z,65.23
2017-01-09T09:58:44.910Z,64.85
2017-01-09T10:03:44.902Z,65.2
2017-01-09T10:08:44.866Z,64.76
2017-01-09T10:13:45.071Z,64.76
2017-01-09T10:18:44.829Z,65.14
2017-01-09T10:23:44.808Z,65.33
2017-01-09T10:28:44.397Z,65.59
2017-01-09T10:33:44.773Z,65.78
2017-01-09T10:38:44.741Z,65.4
2017-01-09T10:43:44.721Z,65.59
2017-01-09T10:48:44.309Z,65.49
2017-01-09T10:53:44.674Z,65.69
2017-01-09T10:58:44.644Z,65.69
2017-01-09T11:03:44.240Z,65.49
2017-01-09T11:08:44.600Z,65.4
2017-01-09T11:13:44.582Z,65.69
2017-01-09T11:18:44.550Z,65.59
2017-01-09T11:23:44.528Z,65.4
2017-01-09T11:28:44.506Z,65.53
2017-01-09T11:33:44.486Z,65.53
2017-01-09T11:38:44.467Z,65.72
2017-01-09T11:43:44.052Z,65.69
2017-01-09T11:48:44.032Z,65.59
2017-01-09T11:53:44.394Z,65.88
2017-01-09T11:58:43.986Z,65.49
2017-01-09T12:03:44.348Z,66.16
2017-01-09T12:08:44.323Z,65.59
2017-01-09T12:13:44.301Z,65.59
2017-01-09T12:18:44.274Z,65.59
2017-01-09T12:23:44.251Z,65.3
2017-01-09T12:28:43.840Z,65.53
2017-01-09T12:33:44.206Z,65.78
2017-01-09T12:38:44.185Z,66.07
2017-01-09T12:43:44.161Z,66.46
2017-01-09T12:48:44.137Z,66.46
2017-01-09T12:53:44.108Z,66.46
2017-01-09T12:58:43.695Z,66.84
2017-01-09T13:03:43.673Z,66.64
2017-01-09T13:08:44.037Z,66.61
2017-01-09T13:13:44.013Z,66.93
2017-01-09T13:18:43.985Z,66.55
2017-01-09T13:23:43.961Z,66.36
2017-01-09T13:28:43.552Z,66.55
2017-01-09T13:33:43.915Z,66.55
2017-01-09T13:38:43.887Z,66.16
2017-01-09T13:43:43.872Z,66.55
2017-01-09T13:48:43.865Z,66.64
2017-01-09T13:53:43.822Z,66.46
2017-01-09T13:58:43.806Z,66.55
2017-01-09T14:03:43.778Z,67.32
2017-01-09T14:08:43.384Z,67.51
2017-01-09T14:13:43.742Z,67.32
2017-01-09T14:18:43.704Z,67.41
2017-01-09T14:23:43.681Z,67.99
2017-01-09T14:28:43.659Z,68.15
2017-01-09T14:33:43.639Z,68.05
2017-01-09T14:38:43.611Z,68.05
2017-01-09T14:43:43.197Z,68.15
2017-01-09T14:48:43.167Z,68.05
2017-01-09T14:53:43.146Z,68.18
2017-01-09T14:58:43.511Z,68.37
2017-01-09T15:03:43.486Z,68.28
2017-01-09T15:08:43.072Z,68.37
2017-01-09T15:13:43.436Z,68.37
2017-01-09T15:18:43.414Z,68.37
2017-01-09T15:23:43.396Z,68.28
2017-01-09T15:28:43.363Z,68.18
2017-01-09T15:33:43.349Z,68.37
2017-01-09T15:38:42.926Z,68.47
2017-01-09T15:43:43.288Z,68.37
2017-01-09T15:48:43.271Z,68.47
2017-01-09T15:53:42.848Z,68.57
2017-01-09T15:58:43.211Z,68.37
2017-01-09T16:03:43.198Z,68.57
2017-01-09T16:08:42.769Z,68.28
2017-01-09T16:13:43.135Z,68.37
2017-01-09T16:18:42.718Z,68.37
2017-01-09T16:23:42.691Z,68.28
2017-01-09T16:28:43.061Z,68.85
2017-01-09T16:33:43.024Z,69.24
2017-01-09T16:38:42.620Z,69.62
2017-01-09T16:43:42.978Z,68.76
2017-01-09T16:48:42.954Z,68.08
2017-01-09T16:53:42.930Z,67.93
2017-01-09T16:58:42.917Z,67.77
2017-01-09T17:03:42.501Z,67.42
2017-01-09T17:08:42.877Z,67.61
2017-01-09T17:13:42.471Z,66.3
2017-01-09T17:18:42.841Z,65.56
2017-01-09T17:23:42.444Z,65.37
2017-01-09T17:28:42.434Z,64.5
2017-01-09T17:33:42.804Z,64.63
2017-01-09T17:38:42.794Z,64.53
2017-01-09T17:43:42.780Z,64.89
2017-01-09T17:48:42.773Z,65.08
2017-01-09T17:53:42.767Z,65.33
2017-01-09T17:58:42.743Z,65.24
2017-01-09T18:03:42.735Z,65.33
2017-01-09T18:08:42.325Z,65.63
2017-01-09T18:13:42.702Z,65.63
2017-01-09T18:18:42.680Z,65.63
2017-01-09T18:23:42.665Z,65.81
2017-01-09T18:28:42.650Z,65.72
2017-01-09T18:33:42.643Z,65.72
2017-01-09T18:38:42.622Z,65.33
2017-01-09T18:43:42.631Z,65.43
2017-01-09T18:48:42.200Z,64.76
2017-01-09T18:53:42.581Z,64.76
2017-01-09T18:58:42.572Z,65.24
2017-01-09T19:03:42.544Z,64.95
2017-01-09T19:08:42.536Z,64.5
2017-01-09T19:13:42.535Z,64.5
2017-01-09T19:18:42.121Z,64.79
2017-01-09T19:23:42.507Z,64.5
2017-01-09T19:28:42.487Z,65.05
2017-01-09T19:33:42.475Z,64.86
2017-01-09T19:38:42.458Z,65.24
2017-01-09T19:43:42.439Z,65.24
2017-01-09T19:48:42.425Z,65.33
2017-01-09T19:53:42.030Z,65.43
2017-01-09T19:58:42.430Z,65.24
2017-01-09T20:03:42.429Z,65.05
2017-01-09T20:08:42.071Z,65.43
2017-01-09T20:13:42.489Z,65.53
2017-01-09T20:18:42.424Z,65.97
2017-01-09T20:23:42.019Z,65.97
2017-01-09T20:28:42.364Z,66.65
2017-01-09T20:33:42.004Z,66.81
2017-01-09T20:38:42.279Z,67.19
2017-01-09T20:43:42.461Z,67
2017-01-09T20:48:41.880Z,67.54
2017-01-09T20:53:42.292Z,67.64
2017-01-09T20:58:42.314Z,67.64
2017-01-09T21:03:42.206Z,67.74
2017-01-09T21:08:42.216Z,67.74
2017-01-09T21:13:42.157Z,68.12
2017-01-09T21:18:42.127Z,68.31
2017-01-09T21:23:42.109Z,68.08
2017-01-09T21:28:42.080Z,67.93
2017-01-09T21:33:41.677Z,67.99
2017-01-09T21:38:41.655Z,67.99
2017-01-09T21:43:42.015Z,68.18
2017-01-09T21:48:41.605Z,68.21
2017-01-09T21:53:41.980Z,68.02
2017-01-09T21:58:41.575Z,67.9
2017-01-09T22:03:41.931Z,67.99
2017-01-09T22:08:41.909Z,68.28
2017-01-09T22:13:41.879Z,68.57
2017-01-09T22:18:41.857Z,68.85
2017-01-09T22:23:41.838Z,68.47
2017-01-09T22:28:41.811Z,69.05
2017-01-09T22:33:41.788Z,69.49
2017-01-09T22:38:41.764Z,69.97
2017-01-09T22:43:41.756Z,69.68
2017-01-09T22:48:41.706Z,69.87
2017-01-09T22:53:41.685Z,69.68
2017-01-09T22:58:41.648Z,70.51
2017-01-09T23:03:41.616Z,70.32
2017-01-09T23:08:41.592Z,70.23
2017-01-09T23:13:41.560Z,70.32
2017-01-09T23:18:41.148Z,70.13
2017-01-09T23:23:41.502Z,70.61
2017-01-09T23:28:41.082Z,70.51
2017-01-09T23:33:41.437Z,70.29
2017-01-09T23:38:41.410Z,71.05
2017-01-09T23:43:40.990Z,70.76
2017-01-09T23:48:41.348Z,70.86
2017-01-09T23:53:41.320Z,70.86
2017-01-09T23:58:41.281Z,71.44
